sensor_id;sensor_type;location;lat;lon;timestamp;P1;durP1;ratioP1;P2;durP2;ratioP2
2111;SDS011;1062;52.538;13.400;2022-08-11T00:01:14;9.20;;;1.77;;
2111;SDS011;1062;52.538;13.400;2022-08-11T00:03:44;3.20;;;1.90;;
2111;SDS011;1062;52.538;13.400;2022-08-11T00:06:23;1.87;;;1.40;;
2111;SDS011;1062;52.538;13.400;2022-08-11T00:08:53;2.07;;;1.77;;
2111;SDS011;1062;52.538;13.400;2022-08-11T00:11:19;2.00;;;1.80;;
2111;SDS011;1062;52.538;13.400;2022-08-11T00:13:47;1.40;;;1.30;;
2111;SDS011;1062;52.538;13.400;2022-08-11T00:16:19;2.37;;;2.17;;
2111;SDS011;1062;52.538;13.400;2022-08-11T00:18:48;3.00;;;1.50;;
2111;SDS011;1062;52.538;13.400;2022-08-11T00:21:15;1.67;;;1.50;;
2111;SDS011;1062;52.538;13.400;2022-08-11T00:23:46;1.47;;;1.37;;
2111;SDS011;1062;52.538;13.400;2022-08-11T00:26:22;2.10;;;1.70;;
2111;SDS011;1062;52.538;13.400;2022-08-11T00:28:49;2.37;;;1.37;;
2111;SDS011;1062;52.538;13.400;2022-08-11T00:31:27;5.90;;;1.57;;
2111;SDS011;1062;52.538;13.400;2022-08-11T00:33:55;1.83;;;1.60;;
2111;SDS011;1062;52.538;13.400;2022-08-11T00:36:25;6.10;;;2.10;;
2111;SDS011;1062;52.538;13.400;2022-08-11T00:39:03;4.53;;;1.77;;
2111;SDS011;1062;52.538;13.400;2022-08-11T00:44:19;5.53;;;1.93;;
2111;SDS011;1062;52.538;13.400;2022-08-11T00:54:55;2.57;;;2.37;;
2111;SDS011;1062;52.538;13.400;2022-08-11T01:00:13;1.63;;;1.53;;
2111;SDS011;1062;52.538;13.400;2022-08-11T01:02:44;1.70;;;1.60;;
2111;SDS011;1062;52.538;13.400;2022-08-11T01:17:04;1.97;;;1.47;;
2111;SDS011;1062;52.538;13.400;2022-08-11T01:19:56;3.23;;;1.63;;
2111;SDS011;1062;52.538;13.400;2022-08-11T01:44:46;2.00;;;1.87;;
2111;SDS011;1062;52.538;13.400;2022-08-11T01:47:26;1.70;;;1.60;;
2111;SDS011;1062;52.538;13.400;2022-08-11T01:50:24;2.47;;;1.60;;
2111;SDS011;1062;52.538;13.400;2022-08-11T01:58:33;2.10;;;1.87;;
2111;SDS011;1062;52.538;13.400;2022-08-11T02:01:04;5.93;;;1.63;;
2111;SDS011;1062;52.538;13.400;2022-08-11T02:16:12;2.13;;;1.70;;
2111;SDS011;1062;52.538;13.400;2022-08-11T02:22:02;2.40;;;2.20;;
2111;SDS011;1062;52.538;13.400;2022-08-11T02:24:57;2.53;;;2.30;;
2111;SDS011;1062;52.538;13.400;2022-08-11T02:27:36;1.80;;;1.53;;
2111;SDS011;1062;52.538;13.400;2022-08-11T02:30:16;1.80;;;1.70;;
2111;SDS011;1062;52.538;13.400;2022-08-11T02:32:50;2.17;;;1.97;;
2111;SDS011;1062;52.538;13.400;2022-08-11T02:38:52;4.13;;;1.80;;
2111;SDS011;1062;52.538;13.400;2022-08-11T02:41:49;3.40;;;1.70;;
2111;SDS011;1062;52.538;13.400;2022-08-11T02:50:27;5.53;;;2.13;;
2111;SDS011;1062;52.538;13.400;2022-08-11T02:53:05;6.10;;;3.73;;
2111;SDS011;1062;52.538;13.400;2022-08-11T03:01:11;1.80;;;1.70;;
2111;SDS011;1062;52.538;13.400;2022-08-11T03:03:52;3.00;;;2.23;;
2111;SDS011;1062;52.538;13.400;2022-08-11T03:06:30;2.33;;;2.13;;
2111;SDS011;1062;52.538;13.400;2022-08-11T03:11:41;3.30;;;2.00;;
2111;SDS011;1062;52.538;13.400;2022-08-11T03:20:33;2.70;;;2.50;;
2111;SDS011;1062;52.538;13.400;2022-08-11T03:23:32;3.43;;;2.20;;
2111;SDS011;1062;52.538;13.400;2022-08-11T03:29:11;2.57;;;2.07;;
2111;SDS011;1062;52.538;13.400;2022-08-11T03:34:29;2.33;;;2.07;;
2111;SDS011;1062;52.538;13.400;2022-08-11T03:40:19;2.47;;;1.70;;
2111;SDS011;1062;52.538;13.400;2022-08-11T03:43:31;4.87;;;2.47;;
2111;SDS011;1062;52.538;13.400;2022-08-11T03:46:27;3.00;;;2.20;;
2111;SDS011;1062;52.538;13.400;2022-08-11T03:49:22;3.27;;;2.40;;
2111;SDS011;1062;52.538;13.400;2022-08-11T04:00:22;3.90;;;2.07;;
2111;SDS011;1062;52.538;13.400;2022-08-11T04:03:08;4.10;;;2.90;;
2111;SDS011;1062;52.538;13.400;2022-08-11T04:25:42;2.47;;;2.27;;
2111;SDS011;1062;52.538;13.400;2022-08-11T04:31:32;5.40;;;3.10;;
2111;SDS011;1062;52.538;13.400;2022-08-11T04:40:08;3.30;;;2.07;;
2111;SDS011;1062;52.538;13.400;2022-08-11T04:48:46;10.63;;;3.77;;
2111;SDS011;1062;52.538;13.400;2022-08-11T04:58:08;3.47;;;3.13;;
2111;SDS011;1062;52.538;13.400;2022-08-11T05:04:15;3.30;;;3.00;;
2111;SDS011;1062;52.538;13.400;2022-08-11T05:12:52;6.50;;;3.50;;
2111;SDS011;1062;52.538;13.400;2022-08-11T05:15:41;6.70;;;3.67;;
2111;SDS011;1062;52.538;13.400;2022-08-11T05:18:32;3.73;;;3.13;;
2111;SDS011;1062;52.538;13.400;2022-08-11T05:21:17;4.17;;;3.40;;
2111;SDS011;1062;52.538;13.400;2022-08-11T05:24:12;7.70;;;4.27;;
2111;SDS011;1062;52.538;13.400;2022-08-11T05:27:09;3.40;;;2.57;;
2111;SDS011;1062;52.538;13.400;2022-08-11T05:32:44;3.10;;;2.90;;
2111;SDS011;1062;52.538;13.400;2022-08-11T05:35:44;4.13;;;3.10;;
2111;SDS011;1062;52.538;13.400;2022-08-11T05:38:17;5.20;;;3.17;;
2111;SDS011;1062;52.538;13.400;2022-08-11T05:41:06;3.03;;;2.83;;
2111;SDS011;1062;52.538;13.400;2022-08-11T05:43:57;2.80;;;2.60;;
2111;SDS011;1062;52.538;13.400;2022-08-11T05:46:42;3.37;;;3.07;;
2111;SDS011;1062;52.538;13.400;2022-08-11T05:49:30;4.37;;;3.00;;
2111;SDS011;1062;52.538;13.400;2022-08-11T05:52:16;3.83;;;3.47;;
2111;SDS011;1062;52.538;13.400;2022-08-11T05:55:04;3.20;;;2.90;;
2111;SDS011;1062;52.538;13.400;2022-08-11T05:57:53;3.07;;;2.50;;
2111;SDS011;1062;52.538;13.400;2022-08-11T06:00:21;3.60;;;2.67;;
2111;SDS011;1062;52.538;13.400;2022-08-11T06:02:52;4.90;;;3.40;;
2111;SDS011;1062;52.538;13.400;2022-08-11T06:05:19;3.60;;;2.80;;
2111;SDS011;1062;52.538;13.400;2022-08-11T06:07:46;4.03;;;3.50;;
2111;SDS011;1062;52.538;13.400;2022-08-11T06:10:13;3.40;;;3.03;;
2111;SDS011;1062;52.538;13.400;2022-08-11T06:12:51;4.20;;;3.03;;
2111;SDS011;1062;52.538;13.400;2022-08-11T06:15:17;4.63;;;2.77;;
2111;SDS011;1062;52.538;13.400;2022-08-11T06:17:44;3.07;;;2.73;;
2111;SDS011;1062;52.538;13.400;2022-08-11T06:20:11;3.63;;;2.97;;
2111;SDS011;1062;52.538;13.400;2022-08-11T06:22:40;5.23;;;4.27;;
2111;SDS011;1062;52.538;13.400;2022-08-11T06:25:09;4.70;;;3.40;;
2111;SDS011;1062;52.538;13.400;2022-08-11T06:27:36;5.60;;;3.07;;
2111;SDS011;1062;52.538;13.400;2022-08-11T06:30:05;2.97;;;2.77;;
2111;SDS011;1062;52.538;13.400;2022-08-11T06:32:37;3.97;;;2.87;;
2111;SDS011;1062;52.538;13.400;2022-08-11T06:37:58;3.23;;;2.70;;
2111;SDS011;1062;52.538;13.400;2022-08-11T06:41:44;3.03;;;2.60;;
2111;SDS011;1062;52.538;13.400;2022-08-11T06:44:02;4.30;;;2.87;;
2111;SDS011;1062;52.538;13.400;2022-08-11T06:46:37;3.70;;;2.83;;
2111;SDS011;1062;52.538;13.400;2022-08-11T06:49:07;4.73;;;3.20;;
2111;SDS011;1062;52.538;13.400;2022-08-11T06:51:55;3.63;;;2.60;;
2111;SDS011;1062;52.538;13.400;2022-08-11T06:54:25;3.27;;;2.97;;
2111;SDS011;1062;52.538;13.400;2022-08-11T06:56:56;6.37;;;2.67;;
2111;SDS011;1062;52.538;13.400;2022-08-11T06:59:42;3.73;;;3.37;;
2111;SDS011;1062;52.538;13.400;2022-08-11T07:02:31;2.83;;;2.60;;
2111;SDS011;1062;52.538;13.400;2022-08-11T07:05:09;3.90;;;3.30;;
2111;SDS011;1062;52.538;13.400;2022-08-11T07:14:07;2.63;;;2.40;;
2111;SDS011;1062;52.538;13.400;2022-08-11T07:16:54;3.03;;;2.73;;
2111;SDS011;1062;52.538;13.400;2022-08-11T07:19:27;6.50;;;2.73;;
2111;SDS011;1062;52.538;13.400;2022-08-11T07:22:12;3.40;;;2.53;;
2111;SDS011;1062;52.538;13.400;2022-08-11T07:25:02;4.67;;;3.33;;
2111;SDS011;1062;52.538;13.400;2022-08-11T07:30:49;2.80;;;2.43;;
2111;SDS011;1062;52.538;13.400;2022-08-11T07:33:24;3.27;;;2.67;;
2111;SDS011;1062;52.538;13.400;2022-08-11T07:35:56;2.70;;;2.30;;
2111;SDS011;1062;52.538;13.400;2022-08-11T07:38:25;2.30;;;2.10;;
2111;SDS011;1062;52.538;13.400;2022-08-11T07:41:08;4.77;;;2.90;;
2111;SDS011;1062;52.538;13.400;2022-08-11T07:43:35;3.50;;;2.27;;
2111;SDS011;1062;52.538;13.400;2022-08-11T07:46:02;3.50;;;2.40;;
2111;SDS011;1062;52.538;13.400;2022-08-11T07:48:55;3.47;;;2.30;;
2111;SDS011;1062;52.538;13.400;2022-08-11T07:51:40;2.63;;;2.40;;
2111;SDS011;1062;52.538;13.400;2022-08-11T07:54:26;2.30;;;2.10;;
2111;SDS011;1062;52.538;13.400;2022-08-11T07:56:52;4.03;;;2.77;;
2111;SDS011;1062;52.538;13.400;2022-08-11T07:59:19;2.40;;;2.20;;
2111;SDS011;1062;52.538;13.400;2022-08-11T08:02:04;3.73;;;3.33;;
2111;SDS011;1062;52.538;13.400;2022-08-11T08:04:48;3.27;;;2.97;;
2111;SDS011;1062;52.538;13.400;2022-08-11T08:07:33;2.10;;;2.00;;
2111;SDS011;1062;52.538;13.400;2022-08-11T08:10:19;4.00;;;2.60;;
2111;SDS011;1062;52.538;13.400;2022-08-11T08:13:05;3.63;;;3.17;;
2111;SDS011;1062;52.538;13.400;2022-08-11T08:15:51;4.23;;;3.63;;
2111;SDS011;1062;52.538;13.400;2022-08-11T08:18:36;8.47;;;3.03;;
2111;SDS011;1062;52.538;13.400;2022-08-11T08:21:03;4.63;;;2.20;;
2111;SDS011;1062;52.538;13.400;2022-08-11T08:23:42;3.43;;;3.13;;
2111;SDS011;1062;52.538;13.400;2022-08-11T08:26:11;2.50;;;2.30;;
2111;SDS011;1062;52.538;13.400;2022-08-11T08:29:00;3.13;;;2.00;;
2111;SDS011;1062;52.538;13.400;2022-08-11T08:31:46;2.60;;;2.23;;
2111;SDS011;1062;52.538;13.400;2022-08-11T08:34:13;3.20;;;2.63;;
2111;SDS011;1062;52.538;13.400;2022-08-11T08:36:47;3.27;;;2.07;;
2111;SDS011;1062;52.538;13.400;2022-08-11T08:39:17;2.10;;;1.77;;
2111;SDS011;1062;52.538;13.400;2022-08-11T08:41:45;6.93;;;1.90;;
2111;SDS011;1062;52.538;13.400;2022-08-11T08:44:16;2.00;;;1.90;;
2111;SDS011;1062;52.538;13.400;2022-08-11T08:46:47;4.53;;;2.17;;
2111;SDS011;1062;52.538;13.400;2022-08-11T08:49:18;4.30;;;2.13;;
2111;SDS011;1062;52.538;13.400;2022-08-11T08:51:51;2.07;;;1.80;;
2111;SDS011;1062;52.538;13.400;2022-08-11T08:54:53;2.20;;;2.00;;
2111;SDS011;1062;52.538;13.400;2022-08-11T08:57:13;2.93;;;2.40;;
2111;SDS011;1062;52.538;13.400;2022-08-11T08:59:43;2.10;;;1.83;;
2111;SDS011;1062;52.538;13.400;2022-08-11T09:02:11;3.30;;;1.80;;
2111;SDS011;1062;52.538;13.400;2022-08-11T09:04:38;4.00;;;2.07;;
2111;SDS011;1062;52.538;13.400;2022-08-11T09:07:09;2.60;;;1.93;;
2111;SDS011;1062;52.538;13.400;2022-08-11T09:09:46;5.60;;;3.17;;
2111;SDS011;1062;52.538;13.400;2022-08-11T09:12:12;5.67;;;4.97;;
2111;SDS011;1062;52.538;13.400;2022-08-11T09:14:40;2.67;;;2.47;;
2111;SDS011;1062;52.538;13.400;2022-08-11T09:17:27;2.10;;;1.90;;
2111;SDS011;1062;52.538;13.400;2022-08-11T09:19:56;2.40;;;2.20;;
2111;SDS011;1062;52.538;13.400;2022-08-11T09:22:27;2.40;;;2.00;;
2111;SDS011;1062;52.538;13.400;2022-08-11T09:25:14;2.57;;;2.10;;
2111;SDS011;1062;52.538;13.400;2022-08-11T09:27:58;3.30;;;2.53;;
2111;SDS011;1062;52.538;13.400;2022-08-11T09:30:25;3.07;;;1.80;;
2111;SDS011;1062;52.538;13.400;2022-08-11T09:32:55;2.53;;;2.00;;
2111;SDS011;1062;52.538;13.400;2022-08-11T09:35:27;2.50;;;2.30;;
2111;SDS011;1062;52.538;13.400;2022-08-11T09:37:55;2.93;;;2.20;;
2111;SDS011;1062;52.538;13.400;2022-08-11T09:40:41;2.40;;;2.20;;
2111;SDS011;1062;52.538;13.400;2022-08-11T09:43:10;2.60;;;2.37;;
2111;SDS011;1062;52.538;13.400;2022-08-11T09:45:57;2.07;;;1.87;;
2111;SDS011;1062;52.538;13.400;2022-08-11T09:48:24;4.10;;;1.93;;
2111;SDS011;1062;52.538;13.400;2022-08-11T09:50:53;2.00;;;1.90;;
2111;SDS011;1062;52.538;13.400;2022-08-11T09:53:21;2.70;;;2.30;;
2111;SDS011;1062;52.538;13.400;2022-08-11T09:55:49;2.13;;;1.80;;
2111;SDS011;1062;52.538;13.400;2022-08-11T09:58:16;2.33;;;2.23;;
2111;SDS011;1062;52.538;13.400;2022-08-11T10:00:43;2.70;;;2.03;;
2111;SDS011;1062;52.538;13.400;2022-08-11T10:03:15;1.60;;;1.50;;
2111;SDS011;1062;52.538;13.400;2022-08-11T10:05:50;2.37;;;2.17;;
2111;SDS011;1062;52.538;13.400;2022-08-11T10:08:38;1.90;;;1.80;;
2111;SDS011;1062;52.538;13.400;2022-08-11T10:11:07;2.23;;;2.03;;
2111;SDS011;1062;52.538;13.400;2022-08-11T10:13:36;4.90;;;1.90;;
2111;SDS011;1062;52.538;13.400;2022-08-11T10:16:26;3.50;;;2.10;;
2111;SDS011;1062;52.538;13.400;2022-08-11T10:18:54;3.17;;;2.87;;
2111;SDS011;1062;52.538;13.400;2022-08-11T10:21:40;7.53;;;2.97;;
2111;SDS011;1062;52.538;13.400;2022-08-11T10:24:08;2.30;;;2.10;;
2111;SDS011;1062;52.538;13.400;2022-08-11T10:26:54;3.83;;;2.50;;
2111;SDS011;1062;52.538;13.400;2022-08-11T10:29:31;2.53;;;2.07;;
2111;SDS011;1062;52.538;13.400;2022-08-11T10:32:21;2.43;;;2.23;;
2111;SDS011;1062;52.538;13.400;2022-08-11T10:35:08;2.67;;;2.47;;
2111;SDS011;1062;52.538;13.400;2022-08-11T10:37:37;2.30;;;2.10;;
2111;SDS011;1062;52.538;13.400;2022-08-11T10:40:05;2.23;;;2.13;;
2111;SDS011;1062;52.538;13.400;2022-08-11T10:42:33;3.43;;;2.50;;
2111;SDS011;1062;52.538;13.400;2022-08-11T10:45:17;2.23;;;1.90;;
2111;SDS011;1062;52.538;13.400;2022-08-11T10:48:03;3.00;;;2.40;;
2111;SDS011;1062;52.538;13.400;2022-08-11T10:50:30;4.90;;;3.00;;
2111;SDS011;1062;52.538;13.400;2022-08-11T10:53:16;2.97;;;2.07;;
2111;SDS011;1062;52.538;13.400;2022-08-11T10:56:03;3.80;;;3.20;;
2111;SDS011;1062;52.538;13.400;2022-08-11T10:58:48;2.23;;;2.13;;
2111;SDS011;1062;52.538;13.400;2022-08-11T11:01:23;3.40;;;2.37;;
2111;SDS011;1062;52.538;13.400;2022-08-11T11:03:53;1.90;;;1.80;;
2111;SDS011;1062;52.538;13.400;2022-08-11T11:09:03;2.70;;;2.50;;
2111;SDS011;1062;52.538;13.400;2022-08-11T11:11:38;2.50;;;2.30;;
2111;SDS011;1062;52.538;13.400;2022-08-11T11:14:29;2.60;;;2.03;;
2111;SDS011;1062;52.538;13.400;2022-08-11T11:17:15;3.00;;;2.00;;
2111;SDS011;1062;52.538;13.400;2022-08-11T11:20:19;2.80;;;2.40;;
2111;SDS011;1062;52.538;13.400;2022-08-11T11:22:55;2.50;;;2.30;;
2111;SDS011;1062;52.538;13.400;2022-08-11T11:25:30;2.30;;;2.10;;
2111;SDS011;1062;52.538;13.400;2022-08-11T11:36:46;1.97;;;1.87;;
2111;SDS011;1062;52.538;13.400;2022-08-11T11:39:18;2.50;;;2.30;;
2111;SDS011;1062;52.538;13.400;2022-08-11T11:41:51;3.37;;;2.40;;
2111;SDS011;1062;52.538;13.400;2022-08-11T11:44:19;2.10;;;2.00;;
2111;SDS011;1062;52.538;13.400;2022-08-11T11:46:47;2.87;;;2.10;;
2111;SDS011;1062;52.538;13.400;2022-08-11T11:49:15;2.30;;;2.10;;
2111;SDS011;1062;52.538;13.400;2022-08-11T11:51:42;2.87;;;2.67;;
2111;SDS011;1062;52.538;13.400;2022-08-11T11:54:10;3.40;;;2.37;;
2111;SDS011;1062;52.538;13.400;2022-08-11T11:56:39;3.33;;;1.83;;
2111;SDS011;1062;52.538;13.400;2022-08-11T11:59:06;2.33;;;2.13;;
2111;SDS011;1062;52.538;13.400;2022-08-11T12:01:52;2.17;;;2.07;;
2111;SDS011;1062;52.538;13.400;2022-08-11T12:04:20;5.00;;;2.20;;
2111;SDS011;1062;52.538;13.400;2022-08-11T12:06:46;2.67;;;2.30;;
2111;SDS011;1062;52.538;13.400;2022-08-11T12:09:12;2.10;;;1.90;;
2111;SDS011;1062;52.538;13.400;2022-08-11T12:11:42;2.43;;;2.23;;
2111;SDS011;1062;52.538;13.400;2022-08-11T12:14:27;1.80;;;1.70;;
2111;SDS011;1062;52.538;13.400;2022-08-11T12:16:53;2.60;;;2.17;;
2111;SDS011;1062;52.538;13.400;2022-08-11T12:19:22;2.27;;;2.07;;
2111;SDS011;1062;52.538;13.400;2022-08-11T12:21:49;2.07;;;1.87;;
2111;SDS011;1062;52.538;13.400;2022-08-11T12:24:35;2.47;;;2.07;;
2111;SDS011;1062;52.538;13.400;2022-08-11T12:27:20;2.03;;;1.83;;
2111;SDS011;1062;52.538;13.400;2022-08-11T12:29:48;1.93;;;1.83;;
2111;SDS011;1062;52.538;13.400;2022-08-11T12:32:16;5.23;;;2.40;;
2111;SDS011;1062;52.538;13.400;2022-08-11T12:34:43;1.77;;;1.67;;
2111;SDS011;1062;52.538;13.400;2022-08-11T12:37:09;2.20;;;2.00;;
2111;SDS011;1062;52.538;13.400;2022-08-11T12:39:37;4.93;;;2.30;;
2111;SDS011;1062;52.538;13.400;2022-08-11T12:42:33;2.80;;;2.00;;
2111;SDS011;1062;52.538;13.400;2022-08-11T12:45:18;3.03;;;1.63;;
2111;SDS011;1062;52.538;13.400;2022-08-11T12:51:00;2.47;;;2.27;;
2111;SDS011;1062;52.538;13.400;2022-08-11T12:53:58;2.77;;;2.30;;
2111;SDS011;1062;52.538;13.400;2022-08-11T12:56:43;2.20;;;2.00;;
2111;SDS011;1062;52.538;13.400;2022-08-11T12:59:30;3.40;;;2.00;;
2111;SDS011;1062;52.538;13.400;2022-08-11T13:02:16;3.87;;;1.70;;
2111;SDS011;1062;52.538;13.400;2022-08-11T13:05:03;3.40;;;2.43;;
2111;SDS011;1062;52.538;13.400;2022-08-11T13:07:31;2.10;;;2.00;;
2111;SDS011;1062;52.538;13.400;2022-08-11T13:09:59;1.77;;;1.67;;
2111;SDS011;1062;52.538;13.400;2022-08-11T13:12:28;2.40;;;2.30;;
2111;SDS011;1062;52.538;13.400;2022-08-11T13:15:21;3.80;;;2.23;;
2111;SDS011;1062;52.538;13.400;2022-08-11T13:17:49;3.13;;;1.60;;
2111;SDS011;1062;52.538;13.400;2022-08-11T13:20:17;2.10;;;1.60;;
2111;SDS011;1062;52.538;13.400;2022-08-11T13:22:47;2.03;;;1.50;;
2111;SDS011;1062;52.538;13.400;2022-08-11T13:25:20;2.00;;;1.90;;
2111;SDS011;1062;52.538;13.400;2022-08-11T13:27:48;1.93;;;1.73;;
2111;SDS011;1062;52.538;13.400;2022-08-11T13:30:15;2.30;;;2.13;;
2111;SDS011;1062;52.538;13.400;2022-08-11T13:33:00;1.70;;;1.60;;
2111;SDS011;1062;52.538;13.400;2022-08-11T13:35:28;1.93;;;1.83;;
2111;SDS011;1062;52.538;13.400;2022-08-11T13:37:55;1.37;;;1.27;;
2111;SDS011;1062;52.538;13.400;2022-08-11T13:40:22;1.87;;;1.77;;
2111;SDS011;1062;52.538;13.400;2022-08-11T13:42:49;1.70;;;1.60;;
2111;SDS011;1062;52.538;13.400;2022-08-11T13:45:16;2.17;;;1.93;;
2111;SDS011;1062;52.538;13.400;2022-08-11T13:47:43;1.70;;;1.60;;
2111;SDS011;1062;52.538;13.400;2022-08-11T13:50:10;1.87;;;1.50;;
2111;SDS011;1062;52.538;13.400;2022-08-11T13:52:38;1.90;;;1.80;;
2111;SDS011;1062;52.538;13.400;2022-08-11T13:55:11;1.93;;;1.77;;
2111;SDS011;1062;52.538;13.400;2022-08-11T13:57:50;2.30;;;1.77;;
2111;SDS011;1062;52.538;13.400;2022-08-11T14:00:16;1.50;;;1.40;;
2111;SDS011;1062;52.538;13.400;2022-08-11T14:02:42;2.33;;;1.60;;
2111;SDS011;1062;52.538;13.400;2022-08-11T14:05:16;2.70;;;1.70;;
2111;SDS011;1062;52.538;13.400;2022-08-11T14:07:48;2.00;;;1.80;;
2111;SDS011;1062;52.538;13.400;2022-08-11T14:10:20;2.73;;;1.73;;
2111;SDS011;1062;52.538;13.400;2022-08-11T14:12:59;1.70;;;1.60;;
2111;SDS011;1062;52.538;13.400;2022-08-11T14:15:46;2.60;;;1.60;;
2111;SDS011;1062;52.538;13.400;2022-08-11T14:18:21;2.80;;;1.70;;
2111;SDS011;1062;52.538;13.400;2022-08-11T14:20:57;1.70;;;1.60;;
2111;SDS011;1062;52.538;13.400;2022-08-11T14:23:45;1.97;;;1.87;;
2111;SDS011;1062;52.538;13.400;2022-08-11T14:26:16;2.50;;;1.77;;
2111;SDS011;1062;52.538;13.400;2022-08-11T14:28:53;3.83;;;1.40;;
2111;SDS011;1062;52.538;13.400;2022-08-11T14:31:27;1.90;;;1.50;;
2111;SDS011;1062;52.538;13.400;2022-08-11T14:33:56;1.80;;;1.70;;
2111;SDS011;1062;52.538;13.400;2022-08-11T14:36:26;1.93;;;1.60;;
2111;SDS011;1062;52.538;13.400;2022-08-11T14:38:54;1.40;;;1.30;;
2111;SDS011;1062;52.538;13.400;2022-08-11T14:41:20;3.93;;;1.90;;
2111;SDS011;1062;52.538;13.400;2022-08-11T14:44:06;1.73;;;1.33;;
2111;SDS011;1062;52.538;13.400;2022-08-11T14:46:52;1.23;;;1.13;;
2111;SDS011;1062;52.538;13.400;2022-08-11T14:49:37;2.40;;;1.23;;
2111;SDS011;1062;52.538;13.400;2022-08-11T14:52:03;2.73;;;1.40;;
2111;SDS011;1062;52.538;13.400;2022-08-11T14:54:35;1.50;;;1.40;;
2111;SDS011;1062;52.538;13.400;2022-08-11T14:57:20;2.10;;;1.93;;
2111;SDS011;1062;52.538;13.400;2022-08-11T14:59:47;2.00;;;1.33;;
2111;SDS011;1062;52.538;13.400;2022-08-11T15:02:14;3.23;;;1.37;;
2111;SDS011;1062;52.538;13.400;2022-08-11T15:05:00;1.40;;;1.30;;
2111;SDS011;1062;52.538;13.400;2022-08-11T15:07:28;1.70;;;1.30;;
2111;SDS011;1062;52.538;13.400;2022-08-11T15:09:56;1.60;;;1.50;;
2111;SDS011;1062;52.538;13.400;2022-08-11T15:12:23;1.33;;;1.23;;
2111;SDS011;1062;52.538;13.400;2022-08-11T15:14:50;1.73;;;1.20;;
2111;SDS011;1062;52.538;13.400;2022-08-11T15:17:34;1.13;;;1.03;;
2111;SDS011;1062;52.538;13.400;2022-08-11T15:20:03;1.23;;;1.13;;
2111;SDS011;1062;52.538;13.400;2022-08-11T15:22:52;1.20;;;1.10;;
2111;SDS011;1062;52.538;13.400;2022-08-11T15:25:37;1.43;;;1.30;;
2111;SDS011;1062;52.538;13.400;2022-08-11T15:28:06;1.47;;;1.30;;
2111;SDS011;1062;52.538;13.400;2022-08-11T15:30:53;2.73;;;1.67;;
2111;SDS011;1062;52.538;13.400;2022-08-11T15:33:39;3.43;;;1.07;;
2111;SDS011;1062;52.538;13.400;2022-08-11T15:36:26;1.53;;;1.00;;
2111;SDS011;1062;52.538;13.400;2022-08-11T15:42:44;1.20;;;1.10;;
2111;SDS011;1062;52.538;13.400;2022-08-11T15:45:33;2.90;;;1.10;;
2111;SDS011;1062;52.538;13.400;2022-08-11T15:48:14;3.60;;;1.53;;
2111;SDS011;1062;52.538;13.400;2022-08-11T15:51:05;1.23;;;1.10;;
2111;SDS011;1062;52.538;13.400;2022-08-11T15:53:44;1.00;;;0.90;;
2111;SDS011;1062;52.538;13.400;2022-08-11T15:56:13;1.10;;;1.00;;
2111;SDS011;1062;52.538;13.400;2022-08-11T15:58:42;1.70;;;1.33;;
2111;SDS011;1062;52.538;13.400;2022-08-11T16:01:30;2.90;;;1.20;;
2111;SDS011;1062;52.538;13.400;2022-08-11T16:04:19;1.27;;;1.10;;
2111;SDS011;1062;52.538;13.400;2022-08-11T16:09:17;2.67;;;1.20;;
2111;SDS011;1062;52.538;13.400;2022-08-11T16:11:47;1.70;;;1.60;;
2111;SDS011;1062;52.538;13.400;2022-08-11T16:14:14;1.57;;;1.47;;
2111;SDS011;1062;52.538;13.400;2022-08-11T16:16:59;1.20;;;1.10;;
2111;SDS011;1062;52.538;13.400;2022-08-11T16:19:27;3.83;;;1.30;;
2111;SDS011;1062;52.538;13.400;2022-08-11T16:22:00;1.73;;;1.63;;
2111;SDS011;1062;52.538;13.400;2022-08-11T16:24:31;2.40;;;0.93;;
2111;SDS011;1062;52.538;13.400;2022-08-11T16:26:59;1.97;;;1.77;;
2111;SDS011;1062;52.538;13.400;2022-08-11T16:29:26;2.60;;;1.30;;
2111;SDS011;1062;52.538;13.400;2022-08-11T16:31:55;1.33;;;1.13;;
2111;SDS011;1062;52.538;13.400;2022-08-11T16:34:41;1.20;;;1.10;;
2111;SDS011;1062;52.538;13.400;2022-08-11T16:37:38;2.17;;;1.20;;
2111;SDS011;1062;52.538;13.400;2022-08-11T16:40:23;1.70;;;1.20;;
2111;SDS011;1062;52.538;13.400;2022-08-11T16:42:49;1.90;;;1.43;;
2111;SDS011;1062;52.538;13.400;2022-08-11T16:45:36;2.27;;;1.53;;
2111;SDS011;1062;52.538;13.400;2022-08-11T16:48:22;2.50;;;1.50;;
2111;SDS011;1062;52.538;13.400;2022-08-11T16:50:52;5.70;;;3.53;;
2111;SDS011;1062;52.538;13.400;2022-08-11T16:53:18;3.03;;;2.77;;
2111;SDS011;1062;52.538;13.400;2022-08-11T16:55:44;2.70;;;1.80;;
2111;SDS011;1062;52.538;13.400;2022-08-11T16:58:12;2.03;;;1.60;;
2111;SDS011;1062;52.538;13.400;2022-08-11T17:00:57;2.40;;;1.30;;
2111;SDS011;1062;52.538;13.400;2022-08-11T17:03:25;2.57;;;1.50;;
2111;SDS011;1062;52.538;13.400;2022-08-11T17:06:09;1.30;;;1.00;;
2111;SDS011;1062;52.538;13.400;2022-08-11T17:08:54;2.20;;;1.67;;
2111;SDS011;1062;52.538;13.400;2022-08-11T17:11:45;2.07;;;1.83;;
2111;SDS011;1062;52.538;13.400;2022-08-11T17:14:45;2.53;;;2.10;;
2111;SDS011;1062;52.538;13.400;2022-08-11T17:17:17;1.70;;;1.60;;
2111;SDS011;1062;52.538;13.400;2022-08-11T17:19:48;1.40;;;1.30;;
2111;SDS011;1062;52.538;13.400;2022-08-11T17:22:17;1.93;;;1.37;;
2111;SDS011;1062;52.538;13.400;2022-08-11T17:25:03;1.20;;;1.10;;
2111;SDS011;1062;52.538;13.400;2022-08-11T17:27:30;1.87;;;1.70;;
2111;SDS011;1062;52.538;13.400;2022-08-11T17:29:59;1.50;;;1.40;;
2111;SDS011;1062;52.538;13.400;2022-08-11T17:35:22;4.30;;;2.03;;
2111;SDS011;1062;52.538;13.400;2022-08-11T17:37:57;6.27;;;1.13;;
2111;SDS011;1062;52.538;13.400;2022-08-11T17:40:24;1.30;;;1.00;;
2111;SDS011;1062;52.538;13.400;2022-08-11T17:42:54;1.60;;;1.50;;
2111;SDS011;1062;52.538;13.400;2022-08-11T17:45:40;1.50;;;1.40;;
2111;SDS011;1062;52.538;13.400;2022-08-11T17:48:27;1.80;;;1.23;;
2111;SDS011;1062;52.538;13.400;2022-08-11T17:50:55;1.63;;;1.17;;
2111;SDS011;1062;52.538;13.400;2022-08-11T17:53:24;1.70;;;1.10;;
2111;SDS011;1062;52.538;13.400;2022-08-11T17:56:10;3.60;;;1.67;;
2111;SDS011;1062;52.538;13.400;2022-08-11T17:58:58;1.33;;;1.23;;
2111;SDS011;1062;52.538;13.400;2022-08-11T18:01:43;1.30;;;1.20;;
2111;SDS011;1062;52.538;13.400;2022-08-11T18:04:11;1.27;;;1.10;;
2111;SDS011;1062;52.538;13.400;2022-08-11T18:06:38;1.80;;;1.70;;
2111;SDS011;1062;52.538;13.400;2022-08-11T18:09:07;2.27;;;1.40;;
2111;SDS011;1062;52.538;13.400;2022-08-11T18:11:54;1.50;;;1.40;;
2111;SDS011;1062;52.538;13.400;2022-08-11T18:14:43;3.53;;;2.10;;
2111;SDS011;1062;52.538;13.400;2022-08-11T18:17:29;1.93;;;1.70;;
2111;SDS011;1062;52.538;13.400;2022-08-11T18:20:13;1.83;;;1.57;;
2111;SDS011;1062;52.538;13.400;2022-08-11T18:22:58;1.63;;;1.33;;
2111;SDS011;1062;52.538;13.400;2022-08-11T18:25:46;1.30;;;1.20;;
2111;SDS011;1062;52.538;13.400;2022-08-11T18:28:34;2.40;;;2.03;;
2111;SDS011;1062;52.538;13.400;2022-08-11T18:31:29;2.67;;;1.97;;
2111;SDS011;1062;52.538;13.400;2022-08-11T18:34:19;2.07;;;1.20;;
2111;SDS011;1062;52.538;13.400;2022-08-11T18:37:09;4.40;;;1.80;;
2111;SDS011;1062;52.538;13.400;2022-08-11T18:39:57;2.90;;;2.27;;
2111;SDS011;1062;52.538;13.400;2022-08-11T18:42:46;1.93;;;1.37;;
2111;SDS011;1062;52.538;13.400;2022-08-11T18:45:33;1.70;;;1.60;;
2111;SDS011;1062;52.538;13.400;2022-08-11T18:48:19;1.90;;;1.70;;
2111;SDS011;1062;52.538;13.400;2022-08-11T18:51:07;2.00;;;1.90;;
2111;SDS011;1062;52.538;13.400;2022-08-11T18:53:55;2.23;;;1.90;;
2111;SDS011;1062;52.538;13.400;2022-08-11T18:56:42;2.37;;;1.80;;
2111;SDS011;1062;52.538;13.400;2022-08-11T18:59:28;2.33;;;1.90;;
2111;SDS011;1062;52.538;13.400;2022-08-11T19:02:17;3.67;;;2.07;;
2111;SDS011;1062;52.538;13.400;2022-08-11T19:05:05;2.03;;;1.83;;
2111;SDS011;1062;52.538;13.400;2022-08-11T19:07:51;3.00;;;2.07;;
2111;SDS011;1062;52.538;13.400;2022-08-11T19:10:39;2.23;;;1.73;;
2111;SDS011;1062;52.538;13.400;2022-08-11T19:13:26;3.20;;;2.17;;
2111;SDS011;1062;52.538;13.400;2022-08-11T19:16:13;4.10;;;1.90;;
2111;SDS011;1062;52.538;13.400;2022-08-11T19:18:58;2.80;;;2.20;;
2111;SDS011;1062;52.538;13.400;2022-08-11T19:21:43;3.13;;;2.03;;